sensor_id;sensor_type;location;lat;lon;timestamp;temperature;humidity
44843;DHT22;31884;52.538;13.820;2023-02-01T00:01:20;3.70;99.90
44843;DHT22;31884;52.538;13.820;2023-02-01T00:03:46;3.80;99.90
44843;DHT22;31884;52.538;13.820;2023-02-01T00:06:11;3.80;99.90
44843;DHT22;31884;52.538;13.820;2023-02-01T00:08:37;3.90;99.90
44843;DHT22;31884;52.538;13.820;2023-02-01T00:11:05;3.90;99.90
44843;DHT22;31884;52.538;13.820;2023-02-01T00:13:32;3.90;99.90
44843;DHT22;31884;52.538;13.820;2023-02-01T00:18:37;4.00;99.90
44843;DHT22;31884;52.538;13.820;2023-02-01T00:21:03;4.00;99.90
44843;DHT22;31884;52.538;13.820;2023-02-01T00:23:36;4.10;99.90
44843;DHT22;31884;52.538;13.820;2023-02-01T00:26:04;4.10;99.90
44843;DHT22;31884;52.538;13.820;2023-02-01T00:28:29;4.10;99.90
44843;DHT22;31884;52.538;13.820;2023-02-01T00:31:02;4.10;99.90
44843;DHT22;31884;52.538;13.820;2023-02-01T00:33:29;4.10;99.90
44843;DHT22;31884;52.538;13.820;2023-02-01T00:35:59;4.10;99.90
44843;DHT22;31884;52.538;13.820;2023-02-01T00:38:27;4.10;99.90
44843;DHT22;31884;52.538;13.820;2023-02-01T00:40:53;4.10;99.90
44843;DHT22;31884;52.538;13.820;2023-02-01T00:43:19;4.10;99.90
44843;DHT22;31884;52.538;13.820;2023-02-01T00:45:47;4.00;99.90
44843;DHT22;31884;52.538;13.820;2023-02-01T00:48:13;4.00;99.90
44843;DHT22;31884;52.538;13.820;2023-02-01T00:50:42;3.90;99.90
44843;DHT22;31884;52.538;13.820;2023-02-01T00:53:09;3.90;99.90
44843;DHT22;31884;52.538;13.820;2023-02-01T00:55:35;3.80;99.90
44843;DHT22;31884;52.538;13.820;2023-02-01T00:58:00;3.80;99.90
44843;DHT22;31884;52.538;13.820;2023-02-01T01:00:26;3.70;99.90
44843;DHT22;31884;52.538;13.820;2023-02-01T01:02:52;3.70;99.90
44843;DHT22;31884;52.538;13.820;2023-02-01T01:05:17;3.70;99.90
44843;DHT22;31884;52.538;13.820;2023-02-01T01:07:43;3.80;99.90
44843;DHT22;31884;52.538;13.820;2023-02-01T01:10:09;3.90;99.90
44843;DHT22;31884;52.538;13.820;2023-02-01T01:12:34;4.00;99.90
44843;DHT22;31884;52.538;13.820;2023-02-01T01:15:00;4.10;99.90
44843;DHT22;31884;52.538;13.820;2023-02-01T01:17:25;4.20;99.90
44843;DHT22;31884;52.538;13.820;2023-02-01T01:19:51;4.20;99.90
44843;DHT22;31884;52.538;13.820;2023-02-01T01:22:16;4.30;99.90
44843;DHT22;31884;52.538;13.820;2023-02-01T01:24:43;4.40;99.90
44843;DHT22;31884;52.538;13.820;2023-02-01T01:27:08;4.40;99.90
44843;DHT22;31884;52.538;13.820;2023-02-01T01:29:34;4.50;99.90
44843;DHT22;31884;52.538;13.820;2023-02-01T01:31:59;4.50;99.90
44843;DHT22;31884;52.538;13.820;2023-02-01T01:34:25;4.50;99.90
44843;DHT22;31884;52.538;13.820;2023-02-01T01:36:50;4.50;99.90
44843;DHT22;31884;52.538;13.820;2023-02-01T01:39:16;4.50;99.90
44843;DHT22;31884;52.538;13.820;2023-02-01T01:41:41;4.50;99.90
44843;DHT22;31884;52.538;13.820;2023-02-01T01:47:11;4.40;99.90
44843;DHT22;31884;52.538;13.820;2023-02-01T01:49:37;4.40;99.90
44843;DHT22;31884;52.538;13.820;2023-02-01T01:52:04;4.30;99.90
44843;DHT22;31884;52.538;13.820;2023-02-01T01:54:34;4.30;99.90
44843;DHT22;31884;52.538;13.820;2023-02-01T01:57:04;4.10;99.90
44843;DHT22;31884;52.538;13.820;2023-02-01T01:59:32;4.10;99.90
44843;DHT22;31884;52.538;13.820;2023-02-01T02:02:00;4.10;99.90
44843;DHT22;31884;52.538;13.820;2023-02-01T02:04:26;4.00;99.90
44843;DHT22;31884;52.538;13.820;2023-02-01T02:06:56;4.00;99.90
44843;DHT22;31884;52.538;13.820;2023-02-01T02:09:23;4.00;99.90
44843;DHT22;31884;52.538;13.820;2023-02-01T02:11:49;4.00;99.90
44843;DHT22;31884;52.538;13.820;2023-02-01T02:14:16;4.10;99.90
44843;DHT22;31884;52.538;13.820;2023-02-01T02:16:52;4.10;99.90
44843;DHT22;31884;52.538;13.820;2023-02-01T02:25:38;4.30;99.90
44843;DHT22;31884;52.538;13.820;2023-02-01T02:28:30;4.30;99.90
44843;DHT22;31884;52.538;13.820;2023-02-01T02:33:45;4.40;99.90
44843;DHT22;31884;52.538;13.820;2023-02-01T02:39:03;4.40;99.90
44843;DHT22;31884;52.538;13.820;2023-02-01T02:44:45;4.30;99.90
44843;DHT22;31884;52.538;13.820;2023-02-01T02:47:43;4.30;99.90
44843;DHT22;31884;52.538;13.820;2023-02-01T02:53:15;4.10;99.90
44843;DHT22;31884;52.538;13.820;2023-02-01T02:56:02;4.10;99.90
44843;DHT22;31884;52.538;13.820;2023-02-01T02:58:47;4.00;99.90
44843;DHT22;31884;52.538;13.820;2023-02-01T03:01:33;4.00;99.90
44843;DHT22;31884;52.538;13.820;2023-02-01T03:04:17;4.00;99.90
44843;DHT22;31884;52.538;13.820;2023-02-01T03:06:43;3.90;99.90
44843;DHT22;31884;52.538;13.820;2023-02-01T03:12:11;4.00;99.90
44843;DHT22;31884;52.538;13.820;2023-02-01T03:15:06;3.90;99.90
44843;DHT22;31884;52.538;13.820;2023-02-01T03:17:37;3.90;99.90
44843;DHT22;31884;52.538;13.820;2023-02-01T03:20:05;3.90;99.90
44843;DHT22;31884;52.538;13.820;2023-02-01T03:22:32;3.90;99.90
44843;DHT22;31884;52.538;13.820;2023-02-01T03:25:15;3.90;99.90
44843;DHT22;31884;52.538;13.820;2023-02-01T03:27:58;3.90;99.90
44843;DHT22;31884;52.538;13.820;2023-02-01T03:30:30;3.90;99.90
44843;DHT22;31884;52.538;13.820;2023-02-01T03:33:00;3.90;99.90
44843;DHT22;31884;52.538;13.820;2023-02-01T03:38:12;3.90;99.90
44843;DHT22;31884;52.538;13.820;2023-02-01T03:40:40;3.90;99.90
44843;DHT22;31884;52.538;13.820;2023-02-01T03:43:10;3.90;99.90
44843;DHT22;31884;52.538;13.820;2023-02-01T03:46:09;3.80;99.90
44843;DHT22;31884;52.538;13.820;2023-02-01T03:48:38;3.80;99.90
44843;DHT22;31884;52.538;13.820;2023-02-01T03:51:05;3.80;99.90
44843;DHT22;31884;52.538;13.820;2023-02-01T03:53:33;3.90;99.90
44843;DHT22;31884;52.538;13.820;2023-02-01T03:56:01;3.80;99.90
44843;DHT22;31884;52.538;13.820;2023-02-01T03:58:27;3.80;99.90
44843;DHT22;31884;52.538;13.820;2023-02-01T04:00:57;3.80;99.90
44843;DHT22;31884;52.538;13.820;2023-02-01T04:03:24;3.80;99.90
44843;DHT22;31884;52.538;13.820;2023-02-01T04:05:51;3.80;99.90
44843;DHT22;31884;52.538;13.820;2023-02-01T04:08:18;3.80;99.90
44843;DHT22;31884;52.538;13.820;2023-02-01T04:10:43;3.80;99.90
44843;DHT22;31884;52.538;13.820;2023-02-01T04:13:09;3.80;99.90
44843;DHT22;31884;52.538;13.820;2023-02-01T04:15:34;3.90;99.90
44843;DHT22;31884;52.538;13.820;2023-02-01T04:18:00;3.80;99.90
44843;DHT22;31884;52.538;13.820;2023-02-01T04:20:26;3.80;99.90
44843;DHT22;31884;52.538;13.820;2023-02-01T04:22:52;3.90;99.90
44843;DHT22;31884;52.538;13.820;2023-02-01T04:25:18;3.90;99.90
44843;DHT22;31884;52.538;13.820;2023-02-01T04:27:43;3.90;99.90
44843;DHT22;31884;52.538;13.820;2023-02-01T04:30:10;3.90;99.90
44843;DHT22;31884;52.538;13.820;2023-02-01T04:32:36;4.00;99.90
44843;DHT22;31884;52.538;13.820;2023-02-01T04:35:03;4.10;99.90
44843;DHT22;31884;52.538;13.820;2023-02-01T04:37:28;4.10;99.90
44843;DHT22;31884;52.538;13.820;2023-02-01T04:39:54;4.10;99.90
44843;DHT22;31884;52.538;13.820;2023-02-01T04:42:19;4.10;99.90
44843;DHT22;31884;52.538;13.820;2023-02-01T04:44:45;4.10;99.90
44843;DHT22;31884;52.538;13.820;2023-02-01T04:47:11;4.20;99.90
44843;DHT22;31884;52.538;13.820;2023-02-01T04:49:36;4.20;99.90
44843;DHT22;31884;52.538;13.820;2023-02-01T04:52:02;4.20;99.90
44843;DHT22;31884;52.538;13.820;2023-02-01T04:54:27;4.20;99.90
44843;DHT22;31884;52.538;13.820;2023-02-01T04:56:53;4.30;99.90
44843;DHT22;31884;52.538;13.820;2023-02-01T04:59:18;4.30;99.90
44843;DHT22;31884;52.538;13.820;2023-02-01T05:01:44;4.30;99.90
44843;DHT22;31884;52.538;13.820;2023-02-01T05:04:09;4.30;99.90
44843;DHT22;31884;52.538;13.820;2023-02-01T05:06:35;4.30;99.90
44843;DHT22;31884;52.538;13.820;2023-02-01T05:09:00;4.40;99.90
44843;DHT22;31884;52.538;13.820;2023-02-01T05:11:26;4.40;99.90
44843;DHT22;31884;52.538;13.820;2023-02-01T05:14:10;4.40;99.90
44843;DHT22;31884;52.538;13.820;2023-02-01T05:16:35;4.40;99.90
44843;DHT22;31884;52.538;13.820;2023-02-01T05:19:01;4.40;99.90
44843;DHT22;31884;52.538;13.820;2023-02-01T05:21:26;4.40;99.90
44843;DHT22;31884;52.538;13.820;2023-02-01T05:23:52;4.50;99.90
44843;DHT22;31884;52.538;13.820;2023-02-01T05:26:42;4.50;99.90
44843;DHT22;31884;52.538;13.820;2023-02-01T05:29:09;4.50;99.90
44843;DHT22;31884;52.538;13.820;2023-02-01T05:31:35;4.60;99.90
44843;DHT22;31884;52.538;13.820;2023-02-01T05:34:01;4.60;99.90
44843;DHT22;31884;52.538;13.820;2023-02-01T05:36:26;4.70;99.90
44843;DHT22;31884;52.538;13.820;2023-02-01T05:38:52;4.70;99.90
44843;DHT22;31884;52.538;13.820;2023-02-01T05:41:17;4.70;99.90
44843;DHT22;31884;52.538;13.820;2023-02-01T05:43:43;4.80;99.90
44843;DHT22;31884;52.538;13.820;2023-02-01T05:46:08;4.80;99.90
44843;DHT22;31884;52.538;13.820;2023-02-01T05:48:38;4.80;99.90
44843;DHT22;31884;52.538;13.820;2023-02-01T05:51:04;4.90;99.90
44843;DHT22;31884;52.538;13.820;2023-02-01T05:53:29;4.90;99.90
44843;DHT22;31884;52.538;13.820;2023-02-01T05:55:55;4.90;99.90
44843;DHT22;31884;52.538;13.820;2023-02-01T05:58:20;5.00;99.90
44843;DHT22;31884;52.538;13.820;2023-02-01T06:00:46;5.00;99.90
44843;DHT22;31884;52.538;13.820;2023-02-01T06:03:11;5.10;99.90
44843;DHT22;31884;52.538;13.820;2023-02-01T06:05:36;5.10;99.90
44843;DHT22;31884;52.538;13.820;2023-02-01T06:08:02;5.10;99.90
44843;DHT22;31884;52.538;13.820;2023-02-01T06:10:28;5.10;99.90
44843;DHT22;31884;52.538;13.820;2023-02-01T06:12:53;5.10;99.90
44843;DHT22;31884;52.538;13.820;2023-02-01T06:15:19;5.10;99.90
44843;DHT22;31884;52.538;13.820;2023-02-01T06:17:45;5.10;99.90
44843;DHT22;31884;52.538;13.820;2023-02-01T06:20:13;5.20;99.90
44843;DHT22;31884;52.538;13.820;2023-02-01T06:22:39;5.20;99.90
44843;DHT22;31884;52.538;13.820;2023-02-01T06:25:07;5.20;99.90
44843;DHT22;31884;52.538;13.820;2023-02-01T06:27:33;5.20;99.90
44843;DHT22;31884;52.538;13.820;2023-02-01T06:29:58;5.20;99.90
44843;DHT22;31884;52.538;13.820;2023-02-01T06:32:24;5.20;99.90
44843;DHT22;31884;52.538;13.820;2023-02-01T06:34:50;5.20;99.90
44843;DHT22;31884;52.538;13.820;2023-02-01T06:37:18;5.20;99.90
44843;DHT22;31884;52.538;13.820;2023-02-01T06:39:43;5.20;99.90
44843;DHT22;31884;52.538;13.820;2023-02-01T06:42:09;5.30;99.90
44843;DHT22;31884;52.538;13.820;2023-02-01T06:44:34;5.20;99.90
44843;DHT22;31884;52.538;13.820;2023-02-01T06:46:59;5.20;99.90
44843;DHT22;31884;52.538;13.820;2023-02-01T06:49:25;5.20;99.90
44843;DHT22;31884;52.538;13.820;2023-02-01T06:51:50;5.20;99.90
44843;DHT22;31884;52.538;13.820;2023-02-01T06:54:16;5.10;99.90
44843;DHT22;31884;52.538;13.820;2023-02-01T06:56:41;5.10;99.90
44843;DHT22;31884;52.538;13.820;2023-02-01T06:59:07;5.10;99.90
44843;DHT22;31884;52.538;13.820;2023-02-01T07:01:33;5.10;99.90
44843;DHT22;31884;52.538;13.820;2023-02-01T07:03:59;5.00;99.90
44843;DHT22;31884;52.538;13.820;2023-02-01T07:06:24;5.00;99.90
44843;DHT22;31884;52.538;13.820;2023-02-01T07:08:50;5.00;99.90
44843;DHT22;31884;52.538;13.820;2023-02-01T07:11:17;5.00;99.90
44843;DHT22;31884;52.538;13.820;2023-02-01T07:13:43;5.00;99.90
44843;DHT22;31884;52.538;13.820;2023-02-01T07:16:11;5.00;99.90
44843;DHT22;31884;52.538;13.820;2023-02-01T07:18:37;5.00;99.90
44843;DHT22;31884;52.538;13.820;2023-02-01T07:21:03;5.00;99.90
44843;DHT22;31884;52.538;13.820;2023-02-01T07:23:28;5.00;99.90
44843;DHT22;31884;52.538;13.820;2023-02-01T07:25:55;5.00;99.90
44843;DHT22;31884;52.538;13.820;2023-02-01T07:28:21;5.00;99.90
44843;DHT22;31884;52.538;13.820;2023-02-01T07:30:46;5.00;99.90
44843;DHT22;31884;52.538;13.820;2023-02-01T07:33:18;5.00;99.90
44843;DHT22;31884;52.538;13.820;2023-02-01T07:35:43;5.00;99.90
44843;DHT22;31884;52.538;13.820;2023-02-01T07:38:09;5.00;99.90
44843;DHT22;31884;52.538;13.820;2023-02-01T07:40:34;5.00;99.90
44843;DHT22;31884;52.538;13.820;2023-02-01T07:42:59;5.00;99.90
44843;DHT22;31884;52.538;13.820;2023-02-01T07:45:25;5.00;99.90
44843;DHT22;31884;52.538;13.820;2023-02-01T07:47:54;5.00;99.90
44843;DHT22;31884;52.538;13.820;2023-02-01T07:50:22;5.00;99.90
44843;DHT22;31884;52.538;13.820;2023-02-01T07:52:48;5.00;99.90
44843;DHT22;31884;52.538;13.820;2023-02-01T07:55:13;5.00;99.90
44843;DHT22;31884;52.538;13.820;2023-02-01T07:57:39;5.00;99.90
44843;DHT22;31884;52.538;13.820;2023-02-01T08:00:04;5.10;99.90
44843;DHT22;31884;52.538;13.820;2023-02-01T08:02:49;5.10;99.90
44843;DHT22;31884;52.538;13.820;2023-02-01T08:05:14;5.10;99.90
44843;DHT22;31884;52.538;13.820;2023-02-01T08:07:40;5.20;99.90
44843;DHT22;31884;52.538;13.820;2023-02-01T08:10:06;5.20;99.90
44843;DHT22;31884;52.538;13.820;2023-02-01T08:12:36;5.30;99.90
44843;DHT22;31884;52.538;13.820;2023-02-01T08:15:02;5.30;99.90
44843;DHT22;31884;52.538;13.820;2023-02-01T08:17:28;5.20;99.90
44843;DHT22;31884;52.538;13.820;2023-02-01T08:19:54;5.20;99.90
44843;DHT22;31884;52.538;13.820;2023-02-01T08:22:20;5.20;99.90
44843;DHT22;31884;52.538;13.820;2023-02-01T08:24:48;5.10;99.90
44843;DHT22;31884;52.538;13.820;2023-02-01T08:27:13;5.10;99.90
44843;DHT22;31884;52.538;13.820;2023-02-01T08:29:39;5.00;99.90
44843;DHT22;31884;52.538;13.820;2023-02-01T08:32:05;5.00;99.90
44843;DHT22;31884;52.538;13.820;2023-02-01T08:34:30;4.90;99.90
44843;DHT22;31884;52.538;13.820;2023-02-01T08:36:56;4.90;99.90
44843;DHT22;31884;52.538;13.820;2023-02-01T08:39:25;4.80;99.90
44843;DHT22;31884;52.538;13.820;2023-02-01T08:41:51;4.80;99.90
44843;DHT22;31884;52.538;13.820;2023-02-01T08:44:35;4.80;99.90
44843;DHT22;31884;52.538;13.820;2023-02-01T08:47:02;4.70;99.90
44843;DHT22;31884;52.538;13.820;2023-02-01T08:49:27;4.70;99.90
44843;DHT22;31884;52.538;13.820;2023-02-01T08:51:53;4.60;99.90
44843;DHT22;31884;52.538;13.820;2023-02-01T08:54:18;4.60;99.90
44843;DHT22;31884;52.538;13.820;2023-02-01T08:56:44;4.60;99.90
44843;DHT22;31884;52.538;13.820;2023-02-01T08:59:09;4.60;99.90
44843;DHT22;31884;52.538;13.820;2023-02-01T09:01:35;4.50;99.90
44843;DHT22;31884;52.538;13.820;2023-02-01T09:04:00;4.50;99.90
44843;DHT22;31884;52.538;13.820;2023-02-01T09:06:26;4.50;99.90
44843;DHT22;31884;52.538;13.820;2023-02-01T09:08:51;4.50;99.90
44843;DHT22;31884;52.538;13.820;2023-02-01T09:11:18;4.50;99.90
44843;DHT22;31884;52.538;13.820;2023-02-01T09:13:45;4.50;99.90
44843;DHT22;31884;52.538;13.820;2023-02-01T09:16:10;4.50;99.90
44843;DHT22;31884;52.538;13.820;2023-02-01T09:18:36;4.50;99.90
44843;DHT22;31884;52.538;13.820;2023-02-01T09:21:08;4.50;99.90
44843;DHT22;31884;52.538;13.820;2023-02-01T09:23:34;4.50;99.90
44843;DHT22;31884;52.538;13.820;2023-02-01T09:26:01;4.60;99.90
44843;DHT22;31884;52.538;13.820;2023-02-01T09:28:27;4.60;99.90
44843;DHT22;31884;52.538;13.820;2023-02-01T09:30:57;4.60;99.90
44843;DHT22;31884;52.538;13.820;2023-02-01T09:33:23;4.70;99.90
44843;DHT22;31884;52.538;13.820;2023-02-01T09:35:58;4.70;99.90
44843;DHT22;31884;52.538;13.820;2023-02-01T09:38:24;4.80;99.90
44843;DHT22;31884;52.538;13.820;2023-02-01T09:40:51;4.80;99.90
44843;DHT22;31884;52.538;13.820;2023-02-01T09:46:24;4.90;99.90
44843;DHT22;31884;52.538;13.820;2023-02-01T09:48:54;4.90;99.90
44843;DHT22;31884;52.538;13.820;2023-02-01T09:51:39;5.00;99.90
44843;DHT22;31884;52.538;13.820;2023-02-01T09:54:15;5.00;99.90
44843;DHT22;31884;52.538;13.820;2023-02-01T09:56:51;5.00;99.90
44843;DHT22;31884;52.538;13.820;2023-02-01T10:01:54;5.00;99.90
44843;DHT22;31884;52.538;13.820;2023-02-01T10:04:20;5.00;99.90
44843;DHT22;31884;52.538;13.820;2023-02-01T10:09:57;5.10;99.90
44843;DHT22;31884;52.538;13.820;2023-02-01T10:15:30;5.20;99.90
44843;DHT22;31884;52.538;13.820;2023-02-01T10:18:28;5.30;99.90
44843;DHT22;31884;52.538;13.820;2023-02-01T10:26:51;5.40;99.90
44843;DHT22;31884;52.538;13.820;2023-02-01T10:29:24;5.40;99.90
44843;DHT22;31884;52.538;13.820;2023-02-01T10:31:52;5.40;99.90
44843;DHT22;31884;52.538;13.820;2023-02-01T10:34:27;5.40;99.90
44843;DHT22;31884;52.538;13.820;2023-02-01T10:39:33;5.40;99.90
44843;DHT22;31884;52.538;13.820;2023-02-01T10:41:59;5.50;99.90
44843;DHT22;31884;52.538;13.820;2023-02-01T10:44:27;5.50;99.90
44843;DHT22;31884;52.538;13.820;2023-02-01T10:46:54;5.50;99.90
44843;DHT22;31884;52.538;13.820;2023-02-01T10:49:37;5.50;99.90
44843;DHT22;31884;52.538;13.820;2023-02-01T10:52:45;5.40;99.90
44843;DHT22;31884;52.538;13.820;2023-02-01T10:58:02;5.40;99.90
44843;DHT22;31884;52.538;13.820;2023-02-01T11:00:28;5.50;99.90
44843;DHT22;31884;52.538;13.820;2023-02-01T11:02:59;5.60;99.90
44843;DHT22;31884;52.538;13.820;2023-02-01T11:05:24;5.70;99.90
44843;DHT22;31884;52.538;13.820;2023-02-01T11:07:53;5.80;99.90
44843;DHT22;31884;52.538;13.820;2023-02-01T11:10:41;5.80;99.90
44843;DHT22;31884;52.538;13.820;2023-02-01T11:13:14;5.90;99.90
44843;DHT22;31884;52.538;13.820;2023-02-01T11:15:44;5.80;99.90
44843;DHT22;31884;52.538;13.820;2023-02-01T11:18:19;5.80;99.90
44843;DHT22;31884;52.538;13.820;2023-02-01T11:20:46;5.80;99.90
44843;DHT22;31884;52.538;13.820;2023-02-01T11:23:16;5.80;99.90
44843;DHT22;31884;52.538;13.820;2023-02-01T11:25:51;5.90;99.90
44843;DHT22;31884;52.538;13.820;2023-02-01T11:28:18;5.90;99.90
44843;DHT22;31884;52.538;13.820;2023-02-01T11:30:45;6.00;99.90
44843;DHT22;31884;52.538;13.820;2023-02-01T11:33:19;6.20;99.90
44843;DHT22;31884;52.538;13.820;2023-02-01T11:35:47;6.30;99.90
44843;DHT22;31884;52.538;13.820;2023-02-01T11:38:22;6.30;99.90
44843;DHT22;31884;52.538;13.820;2023-02-01T11:40:50;6.40;99.90
44843;DHT22;31884;52.538;13.820;2023-02-01T11:43:27;6.40;99.90
44843;DHT22;31884;52.538;13.820;2023-02-01T11:45:58;6.50;99.90
44843;DHT22;31884;52.538;13.820;2023-02-01T11:48:26;6.50;99.90
44843;DHT22;31884;52.538;13.820;2023-02-01T11:56:37;6.70;99.90
44843;DHT22;31884;52.538;13.820;2023-02-01T12:02:18;6.80;99.90
44843;DHT22;31884;52.538;13.820;2023-02-01T12:05:05;6.90;99.90
44843;DHT22;31884;52.538;13.820;2023-02-01T12:10:11;7.00;99.90
44843;DHT22;31884;52.538;13.820;2023-02-01T12:12:49;7.10;99.90
44843;DHT22;31884;52.538;13.820;2023-02-01T12:15:27;7.30;99.90
44843;DHT22;31884;52.538;13.820;2023-02-01T12:21:22;7.30;99.90
44843;DHT22;31884;52.538;13.820;2023-02-01T12:29:42;7.10;99.90
44843;DHT22;31884;52.538;13.820;2023-02-01T12:32:30;7.20;99.90
44843;DHT22;31884;52.538;13.820;2023-02-01T12:37:51;7.20;99.90
44843;DHT22;31884;52.538;13.820;2023-02-01T12:45:59;7.10;99.70
44843;DHT22;31884;52.538;13.820;2023-02-01T12:48:40;7.10;99.20
44843;DHT22;31884;52.538;13.820;2023-02-01T12:51:12;7.10;98.40
44843;DHT22;31884;52.538;13.820;2023-02-01T12:53:55;7.00;99.40
44843;DHT22;31884;52.538;13.820;2023-02-01T12:56:37;7.00;99.60
44843;DHT22;31884;52.538;13.820;2023-02-01T12:59:14;6.90;99.20
44843;DHT22;31884;52.538;13.820;2023-02-01T13:01:46;6.80;99.30
44843;DHT22;31884;52.538;13.820;2023-02-01T13:04:23;6.80;99.90
44843;DHT22;31884;52.538;13.820;2023-02-01T13:06:54;6.70;99.90
44843;DHT22;31884;52.538;13.820;2023-02-01T13:09:35;6.60;99.90
44843;DHT22;31884;52.538;13.820;2023-02-01T13:12:17;6.50;99.90
44843;DHT22;31884;52.538;13.820;2023-02-01T13:14:52;6.40;99.90
44843;DHT22;31884;52.538;13.820;2023-02-01T13:17:27;6.20;99.90
44843;DHT22;31884;52.538;13.820;2023-02-01T13:20:04;5.90;99.90
44843;DHT22;31884;52.538;13.820;2023-02-01T13:22:39;5.50;99.90
44843;DHT22;31884;52.538;13.820;2023-02-01T13:25:13;5.30;99.90
44843;DHT22;31884;52.538;13.820;2023-02-01T13:27:41;5.10;99.90
44843;DHT22;31884;52.538;13.820;2023-02-01T13:30:23;5.00;99.90
44843;DHT22;31884;52.538;13.820;2023-02-01T13:33:14;4.80;99.90
44843;DHT22;31884;52.538;13.820;2023-02-01T13:36:00;4.70;99.90
44843;DHT22;31884;52.538;13.820;2023-02-01T13:41:41;4.60;99.90
44843;DHT22;31884;52.538;13.820;2023-02-01T13:44:14;4.60;99.90
44843;DHT22;31884;52.538;13.820;2023-02-01T13:46:43;4.70;99.90
44843;DHT22;31884;52.538;13.820;2023-02-01T13:49:22;4.70;99.90
44843;DHT22;31884;52.538;13.820;2023-02-01T13:51:52;4.70;99.90
44843;DHT22;31884;52.538;13.820;2023-02-01T13:54:33;4.70;99.90
44843;DHT22;31884;52.538;13.820;2023-02-01T13:57:00;4.70;99.90
44843;DHT22;31884;52.538;13.820;2023-02-01T14:02:44;4.70;99.90
44843;DHT22;31884;52.538;13.820;2023-02-01T14:13:27;4.70;99.90
44843;DHT22;31884;52.538;13.820;2023-02-01T14:16:12;4.70;99.90
44843;DHT22;31884;52.538;13.820;2023-02-01T14:24:01;4.70;99.90
44843;DHT22;31884;52.538;13.820;2023-02-01T14:26:44;4.70;99.90
44843;DHT22;31884;52.538;13.820;2023-02-01T14:31:51;4.60;99.90
44843;DHT22;31884;52.538;13.820;2023-02-01T14:34:21;4.60;99.90
44843;DHT22;31884;52.538;13.820;2023-02-01T14:37:05;4.60;99.90
44843;DHT22;31884;52.538;13.820;2023-02-01T14:39:35;4.60;99.90
44843;DHT22;31884;52.538;13.820;2023-02-01T14:42:04;4.50;99.90
44843;DHT22;31884;52.538;13.820;2023-02-01T14:44:33;4.60;99.90
44843;DHT22;31884;52.538;13.820;2023-02-01T14:49:42;4.70;99.90
44843;DHT22;31884;52.538;13.820;2023-02-01T14:52:16;4.80;99.90
44843;DHT22;31884;52.538;13.820;2023-02-01T14:54:46;4.90;99.90
44843;DHT22;31884;52.538;13.820;2023-02-01T14:57:20;4.90;99.90
44843;DHT22;31884;52.538;13.820;2023-02-01T14:59:46;5.00;99.90
44843;DHT22;31884;52.538;13.820;2023-02-01T15:02:23;5.10;99.90
44843;DHT22;31884;52.538;13.820;2023-02-01T15:04:54;5.10;99.90
44843;DHT22;31884;52.538;13.820;2023-02-01T15:07:21;5.10;99.90
44843;DHT22;31884;52.538;13.820;2023-02-01T15:09:48;5.20;99.90
44843;DHT22;31884;52.538;13.820;2023-02-01T15:12:23;5.20;99.90
44843;DHT22;31884;52.538;13.820;2023-02-01T15:15:20;5.20;99.90
44843;DHT22;31884;52.538;13.820;2023-02-01T15:17:50;5.30;99.90
44843;DHT22;31884;52.538;13.820;2023-02-01T15:20:18;5.30;99.90
44843;DHT22;31884;52.538;13.820;2023-02-01T15:23:01;5.30;99.90
44843;DHT22;31884;52.538;13.820;2023-02-01T15:25:29;5.40;99.90
44843;DHT22;31884;52.538;13.820;2023-02-01T15:27:55;5.30;99.90
44843;DHT22;31884;52.538;13.820;2023-02-01T15:30:25;5.40;99.90
44843;DHT22;31884;52.538;13.820;2023-02-01T15:32:52;5.40;99.90
44843;DHT22;31884;52.538;13.820;2023-02-01T15:35:33;5.40;99.90
44843;DHT22;31884;52.538;13.820;2023-02-01T15:40:55;5.40;99.90
44843;DHT22;31884;52.538;13.820;2023-02-01T15:43:21;5.40;99.90
44843;DHT22;31884;52.538;13.820;2023-02-01T15:45:48;5.50;99.90
44843;DHT22;31884;52.538;13.820;2023-02-01T15:48:20;5.40;99.90
44843;DHT22;31884;52.538;13.820;2023-02-01T15:50:47;5.40;99.90
44843;DHT22;31884;52.538;13.820;2023-02-01T15:53:19;5.30;99.90
44843;DHT22;31884;52.538;13.820;2023-02-01T15:55:45;5.30;99.90
44843;DHT22;31884;52.538;13.820;2023-02-01T15:58:21;5.30;99.90
44843;DHT22;31884;52.538;13.820;2023-02-01T16:00:55;5.20;99.90
44843;DHT22;31884;52.538;13.820;2023-02-01T16:03:43;5.10;99.90
44843;DHT22;31884;52.538;13.820;2023-02-01T16:09:09;5.10;99.90
44843;DHT22;31884;52.538;13.820;2023-02-01T16:14:22;5.00;99.90
44843;DHT22;31884;52.538;13.820;2023-02-01T16:16:48;5.00;99.90
44843;DHT22;31884;52.538;13.820;2023-02-01T16:19:13;4.90;99.90
44843;DHT22;31884;52.538;13.820;2023-02-01T16:21:39;4.90;99.90
44843;DHT22;31884;52.538;13.820;2023-02-01T16:24:05;4.80;99.90
44843;DHT22;31884;52.538;13.820;2023-02-01T16:26:32;4.70;99.90
44843;DHT22;31884;52.538;13.820;2023-02-01T16:28:59;4.70;99.90
44843;DHT22;31884;52.538;13.820;2023-02-01T16:31:29;4.60;99.90
44843;DHT22;31884;52.538;13.820;2023-02-01T16:33:55;4.60;99.90
44843;DHT22;31884;52.538;13.820;2023-02-01T16:36:21;4.50;99.90
44843;DHT22;31884;52.538;13.820;2023-02-01T16:38:47;4.40;99.90
44843;DHT22;31884;52.538;13.820;2023-02-01T16:41:18;4.30;99.90
44843;DHT22;31884;52.538;13.820;2023-02-01T16:43:44;4.30;99.90
44843;DHT22;31884;52.538;13.820;2023-02-01T16:46:18;4.20;99.90
44843;DHT22;31884;52.538;13.820;2023-02-01T16:48:50;4.20;99.90
44843;DHT22;31884;52.538;13.820;2023-02-01T16:51:17;4.10;99.90
44843;DHT22;31884;52.538;13.820;2023-02-01T16:53:43;4.10;99.90
44843;DHT22;31884;52.538;13.820;2023-02-01T16:56:18;4.00;99.90
44843;DHT22;31884;52.538;13.820;2023-02-01T16:58:44;4.00;99.90
44843;DHT22;31884;52.538;13.820;2023-02-01T17:01:14;4.00;99.90
44843;DHT22;31884;52.538;13.820;2023-02-01T17:03:41;4.00;99.90
44843;DHT22;31884;52.538;13.820;2023-02-01T17:06:09;4.00;99.90
44843;DHT22;31884;52.538;13.820;2023-02-01T17:08:40;4.00;99.90
44843;DHT22;31884;52.538;13.820;2023-02-01T17:11:06;4.00;99.90
44843;DHT22;31884;52.538;13.820;2023-02-01T17:13:32;4.00;99.90
44843;DHT22;31884;52.538;13.820;2023-02-01T17:18:42;4.00;99.90
44843;DHT22;31884;52.538;13.820;2023-02-01T17:21:09;4.00;99.90
44843;DHT22;31884;52.538;13.820;2023-02-01T17:23:34;4.00;99.90
44843;DHT22;31884;52.538;13.820;2023-02-01T17:26:00;3.90;99.90
44843;DHT22;31884;52.538;13.820;2023-02-01T17:28:27;4.00;99.90
44843;DHT22;31884;52.538;13.820;2023-02-01T17:30:53;4.00;99.90
44843;DHT22;31884;52.538;13.820;2023-02-01T17:33:31;3.90;99.90
44843;DHT22;31884;52.538;13.820;2023-02-01T17:35:58;4.00;99.90
44843;DHT22;31884;52.538;13.820;2023-02-01T17:38:24;4.00;99.90
44843;DHT22;31884;52.538;13.820;2023-02-01T17:40:50;4.00;99.90
44843;DHT22;31884;52.538;13.820;2023-02-01T17:43:20;4.00;99.90